El Ejido, Spain
Current Conditions -  °F | °C
As of 10:30 PM on Friday 19 Dec 2014 (Local Time) from LEAM Reporting Station
Scattered Clouds Scattered Clouds  
Wind Chill: 54°   Ceiling: Unl
Heat Index: 54°   Visibility: 6mi
Dew Point: 52°   Wind: 3mph
Humidity: 94%   Direction: 330°NNW
Pressure: 30.39"   Gusts: NA
Location:  36.78°N, 2.81°W
Report Text: LEAM 192130Z 33003KT 9999 FEW007 SCT010 12/11 Q1029
Loading
Personal Weather Stations






























Interactive Weather Map New forecast layout! Learn more

10-Day Weather Forecast

Advertisements
Track Severe Weather on mobile